Time;durP1;ratioP1;P1;durP2;ratioP2;P2;SDS_P1;SDS_P2;PMS_P1;PMS_P2;Temp;Humidity;BMP_temperature;BMP_pressure;BME280_temperature;BME280_humidity;BME280_pressure;Samples;Min_cycle;Max_cycle;Signal;HPM_P1;HPM_P2
2021/10/05 00:01:33;;;;;;;9.68;1.90;;;;;;;;;;5010042;28;20647;-76
2021/10/05 00:04:00;;;;;;;8.32;2.10;;;;;;;;;;5009658;28;20158;-76
2021/10/05 00:06:26;;;;;;;7.78;1.60;;;;;;;;;;5008847;28;20095;-76
2021/10/05 00:08:53;;;;;;;8.05;1.23;;;;;;;;;;5007959;28;20762;-76
2021/10/05 00:11:19;;;;;;;5.47;1.63;;;;;;;;;;5006908;28;20049;-76
2021/10/05 00:13:45;;;;;;;5.40;1.45;;;;;;;;;;5006791;28;20038;-76
2021/10/05 00:16:11;;;;;;;7.20;1.55;;;;;;;;;;5004942;28;20137;-76
2021/10/05 00:18:37;;;;;;;7.25;1.48;;;;;;;;;;5006624;28;20133;-76
2021/10/05 00:21:04;;;;;;;8.93;1.40;;;;;;;;;;5008227;28;20100;-76
2021/10/05 00:23:31;;;;;;;6.55;1.80;;;;;;;;;;5002760;28;20125;-76
2021/10/05 00:25:57;;;;;;;10.20;1.60;;;;;;;;;;5006692;28;20053;-76
2021/10/05 00:28:23;;;;;;;7.10;2.28;;;;;;;;;;5009247;28;20154;-75
2021/10/05 00:30:49;;;;;;;7.47;2.00;;;;;;;;;;5008392;28;20478;-76
2021/10/05 00:33:15;;;;;;;6.30;1.60;;;;;;;;;;4987495;28;20087;-76
2021/10/05 00:35:42;;;;;;;10.20;2.40;;;;;;;;;;5009289;28;20049;-76
2021/10/05 00:38:08;;;;;;;5.40;1.83;;;;;;;;;;5009845;28;20046;-76
2021/10/05 00:40:34;;;;;;;7.97;2.10;;;;;;;;;;5004967;28;20070;-76
2021/10/05 00:43:00;;;;;;;9.65;1.80;;;;;;;;;;5009485;28;20070;-76
2021/10/05 00:45:26;;;;;;;9.02;2.60;;;;;;;;;;5020608;28;20042;-76
2021/10/05 00:47:52;;;;;;;4.90;1.77;;;;;;;;;;5006177;28;20200;-76
2021/10/05 00:50:18;;;;;;;5.30;1.73;;;;;;;;;;5004647;28;20115;-76
2021/10/05 00:52:47;;;;;;;7.03;1.35;;;;;;;;;;5001528;28;20041;-76
2021/10/05 00:55:13;;;;;;;7.05;1.60;;;;;;;;;;5016104;28;20446;-76
2021/10/05 00:57:40;;;;;;;7.15;1.80;;;;;;;;;;5009734;28;20086;-76
2021/10/05 01:00:07;;;;;;;6.13;1.70;;;;;;;;;;5009393;28;20092;-76
2021/10/05 01:02:33;;;;;;;7.80;1.73;;;;;;;;;;5022996;28;20394;-76
2021/10/05 01:04:59;;;;;;;5.57;1.25;;;;;;;;;;5008719;28;20378;-76
2021/10/05 01:07:26;;;;;;;6.22;2.05;;;;;;;;;;5007090;28;20085;-76
2021/10/05 01:09:52;;;;;;;8.15;1.95;;;;;;;;;;5005670;28;20478;-76
2021/10/05 01:12:18;;;;;;;9.60;1.90;;;;;;;;;;5003419;28;20042;-76
2021/10/05 01:14:44;;;;;;;10.98;1.80;;;;;;;;;;5006571;28;20046;-76
2021/10/05 01:17:11;;;;;;;8.93;2.00;;;;;;;;;;5008592;28;20397;-76
2021/10/05 01:19:38;;;;;;;9.85;1.75;;;;;;;;;;5016649;28;20072;-76
2021/10/05 01:22:04;;;;;;;15.10;1.80;;;;;;;;;;5005126;28;20176;-76
2021/10/05 01:24:31;;;;;;;7.25;1.60;;;;;;;;;;5006408;28;20053;-76
2021/10/05 01:26:58;;;;;;;14.20;2.00;;;;;;;;;;5001617;28;20100;-75
2021/10/05 01:29:25;;;;;;;6.53;1.73;;;;;;;;;;5003153;28;20042;-76
2021/10/05 01:31:52;;;;;;;10.80;1.63;;;;;;;;;;5004031;28;20042;-76
2021/10/05 01:34:20;;;;;;;8.52;2.08;;;;;;;;;;5007700;28;20065;-76
2021/10/05 01:36:46;;;;;;;6.07;1.55;;;;;;;;;;5008093;28;20049;-75
2021/10/05 01:39:21;;;;;;;6.00;1.70;;;;;;;;;;5016272;28;20041;-76
2021/10/05 01:41:47;;;;;;;7.40;1.83;;;;;;;;;;5005592;28;20042;-76
2021/10/05 01:44:14;;;;;;;4.57;1.50;;;;;;;;;;5007815;28;20124;-76
2021/10/05 01:46:40;;;;;;;6.05;1.60;;;;;;;;;;5008768;28;20498;-76
2021/10/05 01:49:06;;;;;;;4.82;1.58;;;;;;;;;;5003231;28;20050;-76
2021/10/05 01:51:32;;;;;;;10.15;1.70;;;;;;;;;;5023583;28;20079;-75
2021/10/05 01:53:58;;;;;;;4.93;1.42;;;;;;;;;;5007667;28;20034;-75
2021/10/05 01:56:24;;;;;;;5.38;1.75;;;;;;;;;;5004528;28;20465;-76
2021/10/05 01:58:51;;;;;;;9.63;1.55;;;;;;;;;;4969683;28;20391;-76
2021/10/05 02:01:17;;;;;;;5.68;1.42;;;;;;;;;;4974397;28;20439;-76
2021/10/05 02:03:43;;;;;;;5.03;1.63;;;;;;;;;;4958003;28;20375;-76
2021/10/05 02:06:09;;;;;;;8.25;1.95;;;;;;;;;;4975598;28;20425;-76
2021/10/05 02:08:35;;;;;;;8.63;1.55;;;;;;;;;;4976557;28;20394;-75
2021/10/05 02:11:01;;;;;;;9.23;1.48;;;;;;;;;;4965821;28;20046;-75
2021/10/05 02:13:29;;;;;;;6.15;1.58;;;;;;;;;;4990607;28;20042;-76
2021/10/05 02:15:56;;;;;;;3.53;1.60;;;;;;;;;;4990097;28;20058;-75
2021/10/05 02:18:22;;;;;;;8.95;2.03;;;;;;;;;;4973169;28;20089;-76
2021/10/05 02:20:48;;;;;;;4.53;1.50;;;;;;;;;;4981902;28;20426;-76
2021/10/05 02:23:14;;;;;;;4.80;1.58;;;;;;;;;;4980959;28;20042;-76
2021/10/05 02:25:40;;;;;;;6.05;1.42;;;;;;;;;;4974651;28;20121;-75
2021/10/05 02:28:07;;;;;;;5.53;1.60;;;;;;;;;;4978872;28;20045;-76
2021/10/05 02:30:33;;;;;;;4.35;1.58;;;;;;;;;;4997711;28;20043;-76
2021/10/05 02:32:59;;;;;;;6.35;1.67;;;;;;;;;;4972802;28;20066;-76
2021/10/05 02:35:25;;;;;;;5.43;2.13;;;;;;;;;;4972374;28;20518;-76
2021/10/05 02:37:51;;;;;;;4.28;1.60;;;;;;;;;;4972070;28;20372;-75
2021/10/05 02:40:17;;;;;;;7.55;1.42;;;;;;;;;;4988742;28;20156;-76
2021/10/05 02:42:43;;;;;;;7.30;1.42;;;;;;;;;;4977365;28;20050;-75
2021/10/05 02:45:10;;;;;;;9.05;1.60;;;;;;;;;;4976035;28;20048;-76
2021/10/05 02:47:36;;;;;;;6.32;1.83;;;;;;;;;;4973713;28;20039;-76
2021/10/05 02:50:03;;;;;;;8.73;1.60;;;;;;;;;;4992488;28;20104;-76
2021/10/05 02:52:29;;;;;;;6.10;1.85;;;;;;;;;;4987087;28;20039;-76
2021/10/05 02:54:55;;;;;;;6.32;1.65;;;;;;;;;;4973256;28;20038;-76
2021/10/05 02:57:22;;;;;;;6.88;1.73;;;;;;;;;;4988700;28;20057;-76
2021/10/05 02:59:48;;;;;;;6.30;1.60;;;;;;;;;;5009795;28;20046;-75
2021/10/05 03:02:15;;;;;;;9.88;2.08;;;;;;;;;;5010434;28;20140;-75
2021/10/05 03:04:41;;;;;;;16.75;2.05;;;;;;;;;;5009537;28;20455;-76
2021/10/05 03:07:08;;;;;;;4.63;1.70;;;;;;;;;;5006892;28;20108;-76
2021/10/05 03:09:34;;;;;;;6.63;1.50;;;;;;;;;;5010136;28;20048;-75
2021/10/05 03:12:01;;;;;;;12.13;1.85;;;;;;;;;;5009990;28;20073;-76
2021/10/05 03:14:27;;;;;;;8.43;1.90;;;;;;;;;;5007285;28;20042;-76
2021/10/05 03:16:53;;;;;;;5.35;1.77;;;;;;;;;;5004912;28;20050;-75
2021/10/05 03:19:19;;;;;;;7.63;1.88;;;;;;;;;;5004745;28;20042;-76
2021/10/05 03:21:46;;;;;;;6.80;1.58;;;;;;;;;;5003423;28;20431;-75
2021/10/05 03:24:12;;;;;;;6.00;1.85;;;;;;;;;;5007112;28;20474;-75
2021/10/05 03:26:38;;;;;;;4.18;1.45;;;;;;;;;;5009776;28;20052;-76
2021/10/05 03:29:05;;;;;;;7.18;2.28;;;;;;;;;;5009130;28;20041;-76
2021/10/05 03:31:31;;;;;;;7.38;1.92;;;;;;;;;;5023136;28;20140;-76
2021/10/05 03:33:58;;;;;;;4.35;1.60;;;;;;;;;;5009856;28;20052;-75
2021/10/05 03:36:24;;;;;;;6.90;1.73;;;;;;;;;;5009228;28;20056;-76
2021/10/05 03:38:50;;;;;;;5.55;1.80;;;;;;;;;;5009793;28;20041;-76
2021/10/05 03:41:16;;;;;;;8.18;2.22;;;;;;;;;;5002204;28;20045;-76
2021/10/05 03:43:42;;;;;;;12.75;2.53;;;;;;;;;;5005232;28;20042;-76
2021/10/05 03:46:08;;;;;;;9.32;1.90;;;;;;;;;;5006018;28;20489;-75
2021/10/05 03:48:35;;;;;;;5.72;1.90;;;;;;;;;;5005925;28;20042;-76
2021/10/05 03:51:01;;;;;;;6.03;1.50;;;;;;;;;;5006416;28;20045;-75
2021/10/05 03:53:27;;;;;;;5.78;1.70;;;;;;;;;;5008413;28;20064;-75
2021/10/05 03:55:55;;;;;;;5.32;1.92;;;;;;;;;;5006399;28;20084;-75
2021/10/05 03:58:21;;;;;;;8.40;2.47;;;;;;;;;;4970283;28;1125364;-75
2021/10/05 04:00:47;;;;;;;6.70;3.17;;;;;;;;;;5006583;28;20073;-76
2021/10/05 04:03:14;;;;;;;7.15;1.90;;;;;;;;;;5005447;28;20446;-75
2021/10/05 04:05:41;;;;;;;5.75;1.83;;;;;;;;;;4993699;28;20050;-75
2021/10/05 04:08:09;;;;;;;5.25;2.03;;;;;;;;;;4992966;28;20048;-76
2021/10/05 04:10:35;;;;;;;9.98;2.50;;;;;;;;;;5008171;28;20077;-76
2021/10/05 04:13:01;;;;;;;6.90;2.03;;;;;;;;;;4993364;28;20057;-76
2021/10/05 04:15:28;;;;;;;14.48;2.40;;;;;;;;;;4977221;28;20068;-75
2021/10/05 04:17:54;;;;;;;8.23;2.08;;;;;;;;;;4992156;28;20037;-75
2021/10/05 04:20:20;;;;;;;8.73;2.13;;;;;;;;;;5005955;28;20123;-76
2021/10/05 04:22:46;;;;;;;7.95;2.35;;;;;;;;;;4984265;28;20080;-75
2021/10/05 04:25:12;;;;;;;7.50;2.20;;;;;;;;;;4987679;28;20050;-76
2021/10/05 04:27:39;;;;;;;16.70;2.72;;;;;;;;;;4986948;28;20474;-76
2021/10/05 04:30:07;;;;;;;6.45;2.33;;;;;;;;;;5008447;28;20409;-76
2021/10/05 04:32:33;;;;;;;6.55;2.30;;;;;;;;;;4987257;28;20056;-76
2021/10/05 04:34:59;;;;;;;6.97;2.50;;;;;;;;;;5010146;28;20034;-76
2021/10/05 04:37:25;;;;;;;5.65;2.10;;;;;;;;;;4991454;28;20042;-76
2021/10/05 04:39:51;;;;;;;8.70;2.53;;;;;;;;;;4993254;28;20080;-76
2021/10/05 04:42:17;;;;;;;9.30;2.67;;;;;;;;;;4968977;28;20076;-76
2021/10/05 04:44:44;;;;;;;7.97;2.47;;;;;;;;;;4992885;28;20104;-75
2021/10/05 04:47:10;;;;;;;8.10;3.28;;;;;;;;;;4991184;28;20052;-76
2021/10/05 04:49:36;;;;;;;8.75;2.92;;;;;;;;;;4992173;28;20107;-76
2021/10/05 04:52:03;;;;;;;10.32;3.55;;;;;;;;;;4990107;28;20045;-76
2021/10/05 04:54:30;;;;;;;6.53;2.97;;;;;;;;;;4991265;28;20060;-76
2021/10/05 04:56:56;;;;;;;13.40;3.80;;;;;;;;;;5011353;28;20129;-75
2021/10/05 04:59:22;;;;;;;11.93;4.57;;;;;;;;;;5005283;28;20061;-76
2021/10/05 05:01:49;;;;;;;7.70;3.45;;;;;;;;;;5005711;28;20131;-76
2021/10/05 05:04:16;;;;;;;10.13;4.22;;;;;;;;;;5022159;28;20046;-79
2021/10/05 05:06:43;;;;;;;9.85;3.92;;;;;;;;;;5006392;28;20113;-76
2021/10/05 05:09:09;;;;;;;11.20;4.50;;;;;;;;;;5008593;28;20052;-76
2021/10/05 05:11:35;;;;;;;10.88;3.70;;;;;;;;;;5013174;28;20347;-76
2021/10/05 05:14:07;;;;;;;12.27;5.43;;;;;;;;;;5009729;28;20046;-76
2021/10/05 05:16:34;;;;;;;8.10;4.75;;;;;;;;;;5009123;28;20042;-77
2021/10/05 05:19:01;;;;;;;11.27;5.15;;;;;;;;;;5010330;28;20050;-76
2021/10/05 05:21:27;;;;;;;9.02;4.80;;;;;;;;;;5006583;28;20092;-76
2021/10/05 05:23:53;;;;;;;8.00;4.43;;;;;;;;;;5008185;28;20062;-76
2021/10/05 05:26:19;;;;;;;12.15;5.15;;;;;;;;;;5008853;28;20406;-76
2021/10/05 05:28:46;;;;;;;10.13;5.32;;;;;;;;;;5005776;28;20048;-75
2021/10/05 05:31:12;;;;;;;11.20;5.65;;;;;;;;;;5007144;28;20509;-77
2021/10/05 05:33:38;;;;;;;11.05;4.97;;;;;;;;;;5001607;28;20524;-75
2021/10/05 05:36:04;;;;;;;10.80;5.60;;;;;;;;;;4996095;28;20386;-78
2021/10/05 05:38:30;;;;;;;13.05;5.30;;;;;;;;;;5005823;28;20038;-77
2021/10/05 05:40:57;;;;;;;13.63;6.07;;;;;;;;;;5003154;28;20061;-76
2021/10/05 05:43:23;;;;;;;13.00;5.55;;;;;;;;;;5007007;28;20038;-76
2021/10/05 05:45:49;;;;;;;11.93;5.85;;;;;;;;;;5007964;28;20100;-76
2021/10/05 05:48:16;;;;;;;11.30;6.18;;;;;;;;;;5007007;28;20045;-76
2021/10/05 05:50:42;;;;;;;12.43;5.63;;;;;;;;;;4998534;28;20064;-76
2021/10/05 05:53:09;;;;;;;13.70;5.88;;;;;;;;;;5007550;28;20042;-76
2021/10/05 05:55:35;;;;;;;9.25;5.60;;;;;;;;;;5009547;28;20466;-76
2021/10/05 05:58:10;;;;;;;11.65;6.07;;;;;;;;;;5005251;28;20089;-76
2021/10/05 06:00:36;;;;;;;12.15;5.97;;;;;;;;;;4987079;28;20084;-76
2021/10/05 06:03:02;;;;;;;10.25;5.88;;;;;;;;;;4983698;28;20373;-76
2021/10/05 06:05:28;;;;;;;11.50;6.72;;;;;;;;;;5001421;28;20121;-76
2021/10/05 06:07:54;;;;;;;14.32;7.40;;;;;;;;;;4984806;28;20041;-76
2021/10/05 06:10:21;;;;;;;13.02;6.32;;;;;;;;;;5005416;28;20057;-75
2021/10/05 06:12:47;;;;;;;14.98;6.82;;;;;;;;;;4987790;28;20048;-75
2021/10/05 06:15:16;;;;;;;9.88;6.30;;;;;;;;;;4992112;28;20512;-76
2021/10/05 06:17:43;;;;;;;14.43;6.97;;;;;;;;;;5005094;28;20100;-76
2021/10/05 06:20:11;;;;;;;9.23;6.18;;;;;;;;;;4991177;28;20061;-75
2021/10/05 06:22:37;;;;;;;12.77;6.28;;;;;;;;;;4988603;28;20137;-75
2021/10/05 06:25:04;;;;;;;9.73;6.47;;;;;;;;;;4988119;28;20045;-75
2021/10/05 06:27:31;;;;;;;13.57;6.57;;;;;;;;;;4992977;28;20057;-68
2021/10/05 06:29:58;;;;;;;9.68;5.90;;;;;;;;;;4995392;28;20428;-68
2021/10/05 06:32:25;;;;;;;15.75;7.47;;;;;;;;;;4988521;28;20042;-68
2021/10/05 06:34:51;;;;;;;14.57;6.65;;;;;;;;;;4981996;28;20565;-68
2021/10/05 06:37:17;;;;;;;9.18;6.32;;;;;;;;;;5003032;28;20134;-68
2021/10/05 06:39:44;;;;;;;11.55;5.75;;;;;;;;;;4981663;28;20085;-68
2021/10/05 06:42:10;;;;;;;10.10;5.90;;;;;;;;;;4986604;28;20103;-68
2021/10/05 06:44:36;;;;;;;15.13;6.55;;;;;;;;;;4990450;28;20112;-68
2021/10/05 06:47:02;;;;;;;10.68;6.30;;;;;;;;;;5002606;28;20065;-68
2021/10/05 06:49:29;;;;;;;11.82;6.22;;;;;;;;;;4978393;28;20056;-68
2021/10/05 06:51:55;;;;;;;10.70;5.60;;;;;;;;;;5000670;28;20053;-68
2021/10/05 06:54:21;;;;;;;9.88;5.80;;;;;;;;;;5005655;28;20077;-68
2021/10/05 06:56:47;;;;;;;9.73;5.60;;;;;;;;;;4984182;28;20109;-68
2021/10/05 06:59:13;;;;;;;8.13;5.63;;;;;;;;;;5008063;28;20052;-68
2021/10/05 07:01:40;;;;;;;9.38;5.82;;;;;;;;;;4993037;28;20054;-69
2021/10/05 07:04:06;;;;;;;9.85;5.13;;;;;;;;;;5007797;28;20045;-68
2021/10/05 07:06:32;;;;;;;8.23;5.20;;;;;;;;;;5000056;28;20050;-68
2021/10/05 07:08:58;;;;;;;7.18;5.22;;;;;;;;;;5008453;28;20054;-68
2021/10/05 07:11:25;;;;;;;10.68;5.43;;;;;;;;;;5009866;28;20068;-68
2021/10/05 07:13:51;;;;;;;9.13;5.18;;;;;;;;;;5008239;28;20045;-68
2021/10/05 07:16:17;;;;;;;8.70;4.85;;;;;;;;;;5010790;28;20046;-67
2021/10/05 07:18:43;;;;;;;9.52;4.70;;;;;;;;;;5012991;28;20496;-67
2021/10/05 07:21:09;;;;;;;9.07;4.75;;;;;;;;;;5004980;28;20054;-67
2021/10/05 07:23:36;;;;;;;8.55;4.28;;;;;;;;;;5011569;28;20456;-67
2021/10/05 07:26:02;;;;;;;9.70;4.68;;;;;;;;;;5010169;28;20053;-67
2021/10/05 07:28:28;;;;;;;8.13;3.65;;;;;;;;;;5008418;28;20493;-67
2021/10/05 07:30:54;;;;;;;8.40;4.38;;;;;;;;;;5013396;28;20111;-67
2021/10/05 07:33:23;;;;;;;6.93;4.20;;;;;;;;;;5011580;28;20045;-67
2021/10/05 07:35:50;;;;;;;10.25;3.97;;;;;;;;;;5011998;28;20136;-67
2021/10/05 07:38:16;;;;;;;7.70;3.65;;;;;;;;;;5011463;28;20504;-67
2021/10/05 07:40:42;;;;;;;9.48;3.65;;;;;;;;;;5008325;28;20129;-67
2021/10/05 07:43:08;;;;;;;9.60;3.95;;;;;;;;;;5010292;28;20061;-67
2021/10/05 07:45:36;;;;;;;8.60;3.75;;;;;;;;;;5027878;28;20482;-67
2021/10/05 07:48:04;;;;;;;11.43;5.32;;;;;;;;;;5010403;28;20050;-66
2021/10/05 07:50:31;;;;;;;8.40;3.58;;;;;;;;;;5024404;28;20053;-67
2021/10/05 07:52:58;;;;;;;9.70;3.60;;;;;;;;;;5027077;28;20115;-71
2021/10/05 07:55:24;;;;;;;10.32;3.58;;;;;;;;;;4994430;28;20112;-68
2021/10/05 07:57:51;;;;;;;7.70;3.40;;;;;;;;;;5012219;28;20167;-68
2021/10/05 08:00:17;;;;;;;9.73;3.15;;;;;;;;;;5011393;28;20046;-68
2021/10/05 08:02:45;;;;;;;8.93;3.33;;;;;;;;;;4994168;28;20045;-71
2021/10/05 08:05:13;;;;;;;5.53;3.33;;;;;;;;;;4994841;28;20098;-67
2021/10/05 08:07:39;;;;;;;5.70;2.72;;;;;;;;;;4994777;28;20065;-66
2021/10/05 08:10:05;;;;;;;11.85;3.38;;;;;;;;;;4992441;28;20044;-66
2021/10/05 08:12:32;;;;;;;8.35;2.85;;;;;;;;;;5012365;28;20493;-67
2021/10/05 08:14:58;;;;;;;5.63;2.70;;;;;;;;;;4994232;28;20085;-67
2021/10/05 08:17:24;;;;;;;7.90;2.70;;;;;;;;;;5011424;28;20450;-71
2021/10/05 08:19:50;;;;;;;5.35;2.50;;;;;;;;;;5012179;28;20534;-67
2021/10/05 08:22:17;;;;;;;7.25;2.83;;;;;;;;;;4994563;28;20096;-66
2021/10/05 08:24:43;;;;;;;5.03;2.30;;;;;;;;;;5011422;28;20057;-66
2021/10/05 08:27:10;;;;;;;5.82;2.28;;;;;;;;;;5012316;28;20474;-66
2021/10/05 08:29:37;;;;;;;6.82;2.72;;;;;;;;;;4994553;28;20054;-66
2021/10/05 08:32:04;;;;;;;7.57;2.20;;;;;;;;;;5011032;28;20057;-66
2021/10/05 08:34:31;;;;;;;12.13;2.78;;;;;;;;;;5012230;28;20125;-66
2021/10/05 08:36:57;;;;;;;7.35;2.35;;;;;;;;;;5012214;28;20099;-66
2021/10/05 08:39:23;;;;;;;8.32;2.50;;;;;;;;;;4993647;28;20077;-66
2021/10/05 08:41:49;;;;;;;5.50;2.25;;;;;;;;;;4994213;28;20069;-66
2021/10/05 08:44:16;;;;;;;6.50;1.90;;;;;;;;;;4993803;28;20041;-67
2021/10/05 08:46:42;;;;;;;9.73;2.30;;;;;;;;;;4993953;28;20072;-66
2021/10/05 08:49:10;;;;;;;6.43;1.70;;;;;;;;;;4994297;28;20057;-66
2021/10/05 08:51:37;;;;;;;7.93;2.10;;;;;;;;;;4993165;28;20564;-66
2021/10/05 08:54:03;;;;;;;6.28;2.22;;;;;;;;;;4994151;28;20485;-66
2021/10/05 08:56:29;;;;;;;8.73;2.35;;;;;;;;;;4994260;28;20152;-66
2021/10/05 08:58:56;;;;;;;5.38;1.70;;;;;;;;;;5010750;28;20080;-66
2021/10/05 09:01:22;;;;;;;4.45;2.17;;;;;;;;;;5026738;28;20367;-66
2021/10/05 09:03:50;;;;;;;7.35;2.50;;;;;;;;;;5011689;28;20397;-66
2021/10/05 09:06:17;;;;;;;7.07;2.33;;;;;;;;;;5008662;28;20516;-67
2021/10/05 09:08:43;;;;;;;5.53;1.90;;;;;;;;;;5010263;28;20143;-66
2021/10/05 09:11:10;;;;;;;6.50;2.05;;;;;;;;;;5009396;28;20050;-66
2021/10/05 09:13:39;;;;;;;6.63;2.03;;;;;;;;;;5010728;28;20650;-66
2021/10/05 09:16:25;;;;;;;10.13;2.47;;;;;;;;;;5009986;28;20496;-66
2021/10/05 09:18:54;;;;;;;7.60;2.15;;;;;;;;;;5007109;28;20045;-66
2021/10/05 09:21:20;;;;;;;2.95;1.50;;;;;;;;;;5010786;28;20041;-66
2021/10/05 09:23:53;;;;;;;5.07;1.80;;;;;;;;;;5011198;28;20053;-66
2021/10/05 09:26:19;;;;;;;6.50;1.88;;;;;;;;;;5009296;28;20504;-66
2021/10/05 09:28:46;;;;;;;5.35;1.67;;;;;;;;;;5011246;28;20030;-67
2021/10/05 09:31:12;;;;;;;3.88;1.65;;;;;;;;;;5009831;28;20045;-67
2021/10/05 09:33:38;;;;;;;5.47;2.50;;;;;;;;;;5007345;28;20086;-67
2021/10/05 09:36:06;;;;;;;4.75;1.70;;;;;;;;;;5011494;28;20034;-67
2021/10/05 09:38:32;;;;;;;6.28;1.92;;;;;;;;;;5009429;28;20045;-66
2021/10/05 09:41:00;;;;;;;6.43;2.00;;;;;;;;;;5009036;28;20042;-66
2021/10/05 09:43:27;;;;;;;5.55;1.92;;;;;;;;;;5009624;28;20045;-66
2021/10/05 09:45:53;;;;;;;5.43;1.50;;;;;;;;;;5010946;28;20064;-67
2021/10/05 09:48:19;;;;;;;4.20;1.83;;;;;;;;;;5009095;28;20034;-67
2021/10/05 09:50:45;;;;;;;5.50;1.90;;;;;;;;;;5010687;28;20805;-67
2021/10/05 09:53:13;;;;;;;7.05;2.03;;;;;;;;;;5010961;28;20034;-67
2021/10/05 09:55:39;;;;;;;6.30;1.98;;;;;;;;;;5008552;28;20077;-67
2021/10/05 09:58:05;;;;;;;4.57;1.73;;;;;;;;;;5009501;28;20386;-68
2021/10/05 10:00:33;;;;;;;6.05;1.95;;;;;;;;;;5009565;28;20075;-67
2021/10/05 10:02:59;;;;;;;5.28;1.50;;;;;;;;;;5009839;28;20516;-67
2021/10/05 10:05:27;;;;;;;5.28;1.70;;;;;;;;;;5009563;28;20129;-67
2021/10/05 10:07:55;;;;;;;6.68;1.77;;;;;;;;;;5009403;28;20034;-67
2021/10/05 10:10:23;;;;;;;4.40;1.67;;;;;;;;;;5008965;28;20565;-67
2021/10/05 10:12:49;;;;;;;8.43;1.88;;;;;;;;;;5007277;28;20054;-67
2021/10/05 10:15:16;;;;;;;6.85;1.83;;;;;;;;;;5009444;28;20042;-67
2021/10/05 10:17:42;;;;;;;5.53;2.05;;;;;;;;;;5006254;28;20073;-68
2021/10/05 10:20:20;;;;;;;5.10;1.80;;;;;;;;;;5009309;28;20038;-68
2021/10/05 10:22:46;;;;;;;4.40;1.70;;;;;;;;;;5008667;28;20069;-68
2021/10/05 10:25:19;;;;;;;4.93;2.10;;;;;;;;;;5013787;28;20038;-67
2021/10/05 10:27:45;;;;;;;6.47;1.90;;;;;;;;;;5013494;28;20095;-67
2021/10/05 10:30:11;;;;;;;4.60;1.63;;;;;;;;;;5013611;28;20121;-67
2021/10/05 10:32:42;;;;;;;12.65;1.75;;;;;;;;;;5014412;28;20108;-68
2021/10/05 10:35:08;;;;;;;5.72;1.50;;;;;;;;;;5012757;28;20069;-67
2021/10/05 10:37:45;;;;;;;3.85;1.45;;;;;;;;;;5012094;28;20124;-67
2021/10/05 10:40:12;;;;;;;4.63;1.48;;;;;;;;;;5026114;28;20050;-67
2021/10/05 10:42:39;;;;;;;3.97;1.50;;;;;;;;;;5009549;28;20038;-67
2021/10/05 10:45:17;;;;;;;5.68;1.50;;;;;;;;;;5012645;28;20375;-67
2021/10/05 10:47:44;;;;;;;7.32;2.20;;;;;;;;;;5013994;28;20052;-67
2021/10/05 10:50:12;;;;;;;8.57;1.55;;;;;;;;;;5012876;28;20045;-67
2021/10/05 10:52:42;;;;;;;8.32;1.60;;;;;;;;;;5012621;28;20616;-67
2021/10/05 10:55:09;;;;;;;5.15;1.90;;;;;;;;;;5010048;28;20405;-67
2021/10/05 10:57:35;;;;;;;6.30;1.65;;;;;;;;;;5013474;28;20120;-68
2021/10/05 11:00:13;;;;;;;3.83;1.52;;;;;;;;;;4997458;28;20101;-68
2021/10/05 11:02:43;;;;;;;3.90;1.65;;;;;;;;;;4996155;28;20125;-68
2021/10/05 11:05:09;;;;;;;4.38;1.40;;;;;;;;;;5012893;28;20046;-69
2021/10/05 11:07:35;;;;;;;3.70;1.38;;;;;;;;;;4995977;28;20049;-67
2021/10/05 11:10:01;;;;;;;3.65;1.38;;;;;;;;;;4995927;28;20050;-69
2021/10/05 11:12:27;;;;;;;4.72;1.60;;;;;;;;;;5013222;28;20046;-69
2021/10/05 11:14:54;;;;;;;5.07;1.35;;;;;;;;;;5014184;28;20045;-69
2021/10/05 11:17:21;;;;;;;4.63;1.17;;;;;;;;;;4997032;28;20113;-69
2021/10/05 11:19:47;;;;;;;6.80;1.90;;;;;;;;;;5013891;28;20046;-69
2021/10/05 11:22:15;;;;;;;5.75;1.52;;;;;;;;;;5014279;28;20034;-69
2021/10/05 11:24:44;;;;;;;5.10;1.73;;;;;;;;;;5014264;28;20069;-69
2021/10/05 11:27:13;;;;;;;4.57;1.33;;;;;;;;;;4995360;28;20065;-69
2021/10/05 11:29:39;;;;;;;7.55;1.63;;;;;;;;;;5014369;28;20065;-70
2021/10/05 11:32:08;;;;;;;7.20;1.38;;;;;;;;;;5014096;28;20117;-69
2021/10/05 11:34:36;;;;;;;6.80;1.65;;;;;;;;;;5012224;28;20045;-70
2021/10/05 11:37:02;;;;;;;4.00;1.20;;;;;;;;;;4995806;28;20040;-70
2021/10/05 11:39:30;;;;;;;5.47;1.42;;;;;;;;;;4995249;28;20099;-70
2021/10/05 11:41:58;;;;;;;5.03;1.30;;;;;;;;;;4994544;28;20052;-70
2021/10/05 11:44:25;;;;;;;4.82;1.40;;;;;;;;;;5013218;28;20180;-69
2021/10/05 11:46:53;;;;;;;5.28;1.42;;;;;;;;;;4995565;28;20052;-69
2021/10/05 11:49:19;;;;;;;4.50;1.20;;;;;;;;;;5012146;28;20072;-70
2021/10/05 11:51:46;;;;;;;3.53;1.23;;;;;;;;;;4995551;28;20402;-69
2021/10/05 11:54:17;;;;;;;7.38;2.05;;;;;;;;;;4994143;28;20052;-70
2021/10/05 11:56:44;;;;;;;6.22;1.80;;;;;;;;;;5012796;28;20080;-69
2021/10/05 11:59:20;;;;;;;3.28;1.40;;;;;;;;;;4995610;28;20078;-69
2021/10/05 12:01:47;;;;;;;4.85;1.60;;;;;;;;;;5012220;28;20122;-69
2021/10/05 12:04:13;;;;;;;3.67;1.35;;;;;;;;;;4994977;28;20132;-70
2021/10/05 12:06:42;;;;;;;3.05;1.60;;;;;;;;;;5010711;28;20049;-69
2021/10/05 12:09:09;;;;;;;4.65;1.58;;;;;;;;;;4994572;28;20131;-70
2021/10/05 12:11:35;;;;;;;4.10;1.40;;;;;;;;;;5012609;28;20077;-69
2021/10/05 12:14:02;;;;;;;5.75;1.70;;;;;;;;;;5011465;28;20041;-70
2021/10/05 12:16:28;;;;;;;8.85;1.92;;;;;;;;;;4993848;28;20053;-69
2021/10/05 12:18:56;;;;;;;4.53;1.83;;;;;;;;;;4994883;28;20116;-69
2021/10/05 12:21:22;;;;;;;4.80;1.40;;;;;;;;;;5012592;28;20081;-70
2021/10/05 12:23:51;;;;;;;4.63;1.70;;;;;;;;;;5011625;28;20050;-70
2021/10/05 12:26:17;;;;;;;5.60;1.55;;;;;;;;;;4994368;28;20104;-70
2021/10/05 12:28:55;;;;;;;6.85;1.73;;;;;;;;;;5012163;28;20485;-70
2021/10/05 12:31:22;;;;;;;4.88;1.50;;;;;;;;;;4993783;28;20519;-69
2021/10/05 12:34:00;;;;;;;4.90;1.40;;;;;;;;;;5011840;28;20049;-70
2021/10/05 12:36:27;;;;;;;6.15;1.70;;;;;;;;;;5011372;28;20104;-69
2021/10/05 12:38:54;;;;;;;5.85;1.73;;;;;;;;;;4994804;28;20482;-69
2021/10/05 12:41:20;;;;;;;6.00;2.13;;;;;;;;;;4994610;28;20056;-70
2021/10/05 12:43:47;;;;;;;5.50;1.60;;;;;;;;;;5011012;28;20120;-69
2021/10/05 12:46:15;;;;;;;4.13;1.60;;;;;;;;;;5005126;28;20437;-70
2021/10/05 12:48:43;;;;;;;4.07;1.60;;;;;;;;;;5011949;28;20493;-69
2021/10/05 12:51:13;;;;;;;5.57;1.73;;;;;;;;;;4993944;28;20046;-69
2021/10/05 12:53:41;;;;;;;5.28;1.60;;;;;;;;;;5011769;28;20115;-69
2021/10/05 12:56:07;;;;;;;6.22;1.88;;;;;;;;;;5011571;28;20064;-69
2021/10/05 12:58:33;;;;;;;7.47;1.85;;;;;;;;;;4993599;28;20080;-69
2021/10/05 13:00:59;;;;;;;6.05;1.33;;;;;;;;;;4994318;28;20037;-69
2021/10/05 13:03:25;;;;;;;6.55;1.52;;;;;;;;;;4988612;28;20050;-69
2021/10/05 13:05:52;;;;;;;6.50;1.70;;;;;;;;;;5010617;28;20140;-69
2021/10/05 13:08:18;;;;;;;6.93;1.63;;;;;;;;;;4993918;28;20034;-69
2021/10/05 13:10:44;;;;;;;4.35;1.35;;;;;;;;;;5011641;28;20567;-69
2021/10/05 13:13:10;;;;;;;4.75;1.25;;;;;;;;;;5010780;28;20039;-69
2021/10/05 13:15:36;;;;;;;6.88;1.70;;;;;;;;;;5011407;28;20053;-69
2021/10/05 13:18:03;;;;;;;5.72;1.60;;;;;;;;;;4994097;28;20045;-70
2021/10/05 13:20:30;;;;;;;3.67;1.30;;;;;;;;;;4991909;28;20512;-69
2021/10/05 13:22:57;;;;;;;5.32;1.70;;;;;;;;;;5011286;28;20038;-69
2021/10/05 13:25:23;;;;;;;6.20;1.63;;;;;;;;;;4993396;28;20046;-69
2021/10/05 13:27:50;;;;;;;12.18;2.15;;;;;;;;;;5010673;28;20084;-69
2021/10/05 13:30:16;;;;;;;6.05;1.40;;;;;;;;;;4993134;28;20042;-69
2021/10/05 13:32:43;;;;;;;3.75;1.20;;;;;;;;;;4989374;28;20144;-69
2021/10/05 13:35:09;;;;;;;8.23;1.83;;;;;;;;;;4993181;28;20367;-69
2021/10/05 13:37:38;;;;;;;7.75;1.77;;;;;;;;;;4992697;28;20080;-69
2021/10/05 13:40:05;;;;;;;10.95;1.83;;;;;;;;;;4992975;28;20060;-69
2021/10/05 13:42:31;;;;;;;6.18;1.48;;;;;;;;;;4990385;28;20093;-69
2021/10/05 13:44:57;;;;;;;5.93;1.40;;;;;;;;;;4993412;28;20501;-69
2021/10/05 13:47:24;;;;;;;6.53;1.40;;;;;;;;;;5010094;28;20053;-69
2021/10/05 13:49:50;;;;;;;6.35;1.63;;;;;;;;;;5011134;28;20140;-69
2021/10/05 13:52:16;;;;;;;7.47;1.60;;;;;;;;;;4993574;28;20466;-69
2021/10/05 13:54:43;;;;;;;7.32;1.70;;;;;;;;;;4988295;28;20119;-70
2021/10/05 13:57:10;;;;;;;3.88;1.40;;;;;;;;;;5009080;28;20054;-69
2021/10/05 13:59:36;;;;;;;7.65;2.40;;;;;;;;;;5010320;28;20120;-69
2021/10/05 14:02:03;;;;;;;10.23;1.70;;;;;;;;;;5014436;28;20045;-70
2021/10/05 14:04:29;;;;;;;6.85;1.58;;;;;;;;;;4997079;28;20046;-70
2021/10/05 14:06:55;;;;;;;5.65;1.63;;;;;;;;;;4996214;28;20116;-69
2021/10/05 14:09:21;;;;;;;6.18;1.73;;;;;;;;;;5014209;28;20466;-70
2021/10/05 14:11:48;;;;;;;4.45;1.50;;;;;;;;;;5014509;28;20038;-69
2021/10/05 14:14:14;;;;;;;8.60;1.77;;;;;;;;;;4996910;28;20370;-69
2021/10/05 14:16:41;;;;;;;6.13;1.67;;;;;;;;;;4980189;28;20053;-69
2021/10/05 14:19:08;;;;;;;4.72;1.63;;;;;;;;;;5015032;28;20050;-70
2021/10/05 14:21:34;;;;;;;8.52;1.85;;;;;;;;;;5014249;28;20550;-69
2021/10/05 14:24:01;;;;;;;6.30;1.85;;;;;;;;;;4995715;28;20057;-69
2021/10/05 14:26:27;;;;;;;6.30;1.58;;;;;;;;;;5014669;28;20042;-69
2021/10/05 14:28:53;;;;;;;6.93;1.60;;;;;;;;;;4995720;28;20076;-69
2021/10/05 14:31:20;;;;;;;6.70;2.28;;;;;;;;;;4996970;28;20050;-69
2021/10/05 14:33:47;;;;;;;6.75;2.00;;;;;;;;;;5014529;28;20038;-69
2021/10/05 14:36:14;;;;;;;6.40;1.95;;;;;;;;;;4996136;28;20076;-69
2021/10/05 14:38:40;;;;;;;5.65;2.03;;;;;;;;;;4996993;28;20046;-69